Time;durP1;ratioP1;P1;durP2;ratioP2;P2;SDS_P1;SDS_P2;PMS_P1;PMS_P2;Temp;Humidity;BMP_temperature;BMP_pressure;BME280_temperature;BME280_humidity;BME280_pressure;Samples;Min_cycle;Max_cycle;Signal;HPM_P1;HPM_P2
2022/04/08 00:02:01;;;;;;;4.68;1.30;;;;;;;;;;6135938;23;20069;-90
2022/04/08 00:04:27;;;;;;;1.95;1.42;;;;;;;;;;6135392;23;20505;-91
2022/04/08 00:06:53;;;;;;;4.25;1.02;;;;;;;;;;6136028;23;20447;-89
2022/04/08 00:09:19;;;;;;;4.75;2.08;;;;;;;;;;6135836;23;20354;-93
2022/04/08 00:11:45;;;;;;;5.55;0.93;;;;;;;;;;6159294;23;20047;-91
2022/04/08 00:14:11;;;;;;;3.03;0.90;;;;;;;;;;6135338;23;20083;-90
2022/04/08 00:16:39;;;;;;;2.70;1.50;;;;;;;;;;6135903;23;20017;-91
2022/04/08 00:19:05;;;;;;;1.05;0.73;;;;;;;;;;6135183;23;20064;-90
2022/04/08 00:21:31;;;;;;;3.20;0.95;;;;;;;;;;6135882;23;20017;-89
2022/04/08 00:23:57;;;;;;;3.17;1.38;;;;;;;;;;6135459;23;20411;-90
2022/04/08 00:26:23;;;;;;;3.60;1.55;;;;;;;;;;6135674;23;20021;-90
2022/04/08 00:28:49;;;;;;;1.25;0.88;;;;;;;;;;6135022;23;20066;-90
2022/04/08 00:31:15;;;;;;;7.90;1.23;;;;;;;;;;6135580;23;20397;-89
2022/04/08 00:33:41;;;;;;;13.80;1.50;;;;;;;;;;6135568;23;20021;-89
2022/04/08 00:36:07;;;;;;;5.68;1.45;;;;;;;;;;6160532;23;20020;-90
2022/04/08 00:38:34;;;;;;;5.50;1.50;;;;;;;;;;6135463;23;20044;-89
2022/04/08 00:41:00;;;;;;;5.80;1.88;;;;;;;;;;6133578;23;20446;-90
2022/04/08 00:43:36;;;;;;;1.65;1.10;;;;;;;;;;6135500;23;20013;-89
2022/04/08 00:46:03;;;;;;;6.28;1.73;;;;;;;;;;6134846;23;20468;-90
2022/04/08 00:48:29;;;;;;;7.25;2.03;;;;;;;;;;6135031;23;20017;-90
2022/04/08 00:50:56;;;;;;;1.52;1.05;;;;;;;;;;6135064;23;20020;-90
2022/04/08 00:53:23;;;;;;;5.93;1.80;;;;;;;;;;6134886;23;20346;-92
2022/04/08 00:55:50;;;;;;;8.50;1.60;;;;;;;;;;6135128;23;20067;-90
2022/04/08 00:58:16;;;;;;;7.35;2.20;;;;;;;;;;6159305;23;20176;-92
2022/04/08 01:00:42;;;;;;;7.45;1.98;;;;;;;;;;6135103;23;20100;-91
2022/04/08 01:03:08;;;;;;;5.75;1.60;;;;;;;;;;6135016;23;20027;-90
2022/04/08 01:05:35;;;;;;;3.78;1.45;;;;;;;;;;6134416;23;20025;-89
2022/04/08 01:08:04;;;;;;;11.05;2.00;;;;;;;;;;6135108;23;20013;-88
2022/04/08 01:10:31;;;;;;;13.15;1.20;;;;;;;;;;6133886;23;20390;-88
2022/04/08 01:12:57;;;;;;;2.72;1.30;;;;;;;;;;6133509;23;20029;-89
2022/04/08 01:15:25;;;;;;;5.50;1.45;;;;;;;;;;6159130;23;20056;-89
2022/04/08 01:17:51;;;;;;;4.72;1.40;;;;;;;;;;6159081;23;20454;-89
2022/04/08 01:20:18;;;;;;;3.67;1.55;;;;;;;;;;6134146;23;20021;-88
2022/04/08 01:22:45;;;;;;;7.47;1.48;;;;;;;;;;6134915;23;20013;-89
2022/04/08 01:25:12;;;;;;;2.33;1.42;;;;;;;;;;6135052;23;20020;-89
2022/04/08 01:27:38;;;;;;;5.80;1.83;;;;;;;;;;6159228;23;20017;-89
2022/04/08 01:30:05;;;;;;;6.75;1.70;;;;;;;;;;6135635;23;20028;-89
2022/04/08 01:32:31;;;;;;;3.58;1.48;;;;;;;;;;6135160;23;20458;-88
2022/04/08 01:34:57;;;;;;;3.92;1.42;;;;;;;;;;6135946;23;20021;-89
2022/04/08 01:37:23;;;;;;;12.30;1.63;;;;;;;;;;6185827;23;20020;-90
2022/04/08 01:39:50;;;;;;;5.95;1.85;;;;;;;;;;6135227;23;20017;-90
2022/04/08 01:42:22;;;;;;;3.25;1.73;;;;;;;;;;6159306;23;20021;-90
2022/04/08 01:44:48;;;;;;;7.45;2.05;;;;;;;;;;6185264;23;20017;-91
2022/04/08 01:47:14;;;;;;;10.23;2.42;;;;;;;;;;6135101;23;20028;-89
2022/04/08 01:49:40;;;;;;;11.10;2.13;;;;;;;;;;6134210;23;20474;-90
2022/04/08 01:52:07;;;;;;;10.18;1.65;;;;;;;;;;6134746;23;20017;-90
2022/04/08 01:54:33;;;;;;;12.27;2.55;;;;;;;;;;6160284;23;20013;-90
2022/04/08 01:56:59;;;;;;;11.23;2.47;;;;;;;;;;6135114;23;20053;-89
2022/04/08 01:59:25;;;;;;;9.80;2.63;;;;;;;;;;6134395;23;20021;-90
2022/04/08 02:01:51;;;;;;;10.82;2.97;;;;;;;;;;6135138;23;20017;-90
2022/04/08 02:04:17;;;;;;;13.68;3.38;;;;;;;;;;6135138;23;20096;-89
2022/04/08 02:06:43;;;;;;;6.93;1.83;;;;;;;;;;6133900;23;20021;-90
2022/04/08 02:09:11;;;;;;;7.40;2.40;;;;;;;;;;6133967;23;20083;-89
2022/04/08 02:11:43;;;;;;;6.20;2.28;;;;;;;;;;6135437;23;20059;-91
2022/04/08 02:14:09;;;;;;;17.45;2.78;;;;;;;;;;6159672;23;20029;-93
2022/04/08 02:16:35;;;;;;;6.90;1.50;;;;;;;;;;6187171;23;20025;-94
2022/04/08 02:19:07;;;;;;;3.28;2.10;;;;;;;;;;6135965;23;20017;-95
2022/04/08 02:21:42;;;;;;;6.40;1.73;;;;;;;;;;6135898;23;20040;-94
2022/04/08 02:24:13;;;;;;;9.10;1.63;;;;;;;;;;6136312;23;20020;-93
2022/04/08 02:26:39;;;;;;;4.88;1.33;;;;;;;;;;6135452;23;20021;-93
2022/04/08 02:29:12;;;;;;;8.77;1.52;;;;;;;;;;6136869;23;20017;-92
2022/04/08 02:31:38;;;;;;;8.05;1.50;;;;;;;;;;6135421;23;20024;-93
2022/04/08 02:34:04;;;;;;;3.72;1.63;;;;;;;;;;6134895;23;20150;-93
2022/04/08 02:36:35;;;;;;;3.83;1.77;;;;;;;;;;6135450;23;20493;-93
2022/04/08 02:39:04;;;;;;;8.55;1.80;;;;;;;;;;6136136;23;20516;-93
2022/04/08 02:41:31;;;;;;;5.22;1.60;;;;;;;;;;6135809;23;20017;-93
2022/04/08 02:43:57;;;;;;;6.18;2.15;;;;;;;;;;6135805;23;20458;-94
2022/04/08 02:46:23;;;;;;;8.05;2.95;;;;;;;;;;6135573;23;20021;-95
2022/04/08 02:48:49;;;;;;;8.82;2.28;;;;;;;;;;6160330;23;20064;-94
2022/04/08 02:51:15;;;;;;;5.85;1.88;;;;;;;;;;6136038;23;20024;-89
2022/04/08 02:53:41;;;;;;;2.65;1.40;;;;;;;;;;6135483;23;20536;-89
2022/04/08 02:56:07;;;;;;;8.90;1.70;;;;;;;;;;6161493;23;20048;-89
2022/04/08 02:58:33;;;;;;;10.82;3.33;;;;;;;;;;6136117;23;20474;-89
2022/04/08 03:00:59;;;;;;;6.38;1.67;;;;;;;;;;6135930;23;20450;-89
2022/04/08 03:03:26;;;;;;;8.02;2.10;;;;;;;;;;6135930;23;20449;-91
2022/04/08 03:05:53;;;;;;;4.88;1.83;;;;;;;;;;6136241;23;20020;-89
2022/04/08 03:08:19;;;;;;;7.57;2.20;;;;;;;;;;6135854;23;20017;-89
2022/04/08 03:10:45;;;;;;;5.03;2.13;;;;;;;;;;6135794;23;20099;-90
2022/04/08 03:13:12;;;;;;;10.68;1.83;;;;;;;;;;6135702;23;20025;-90
2022/04/08 03:15:39;;;;;;;4.40;1.85;;;;;;;;;;6160670;23;20017;-91
2022/04/08 03:18:05;;;;;;;6.35;1.70;;;;;;;;;;6136488;23;20078;-89
2022/04/08 03:20:31;;;;;;;10.88;2.35;;;;;;;;;;6136556;23;20035;-90
2022/04/08 03:22:57;;;;;;;3.60;1.50;;;;;;;;;;6135661;23;20021;-90
2022/04/08 03:25:23;;;;;;;8.57;2.22;;;;;;;;;;6136005;23;20108;-90
2022/04/08 03:27:50;;;;;;;7.28;1.52;;;;;;;;;;6136677;23;20019;-90
2022/04/08 03:30:16;;;;;;;10.68;2.22;;;;;;;;;;6135894;23;20017;-89
2022/04/08 03:32:42;;;;;;;1.77;0.98;;;;;;;;;;6134974;23;20350;-89
2022/04/08 03:35:08;;;;;;;7.72;1.80;;;;;;;;;;6135684;23;20127;-89
2022/04/08 03:37:34;;;;;;;2.28;1.63;;;;;;;;;;6136462;23;20013;-89
2022/04/08 03:40:00;;;;;;;6.93;1.73;;;;;;;;;;6135792;23;20394;-90
2022/04/08 03:42:26;;;;;;;17.60;1.90;;;;;;;;;;6136041;23;20062;-90
2022/04/08 03:44:54;;;;;;;3.00;1.95;;;;;;;;;;6135768;23;20059;-89
2022/04/08 03:47:20;;;;;;;3.70;1.20;;;;;;;;;;6136493;23;20028;-87
2022/04/08 03:49:46;;;;;;;2.13;1.10;;;;;;;;;;6186919;23;20474;-90
2022/04/08 03:52:13;;;;;;;1.30;1.00;;;;;;;;;;6160293;23;20020;-89
2022/04/08 03:54:57;;;;;;;2.30;1.13;;;;;;;;;;6160527;23;20096;-91
2022/04/08 03:57:22;;;;;;;;;;;3.60;99.90;;;;;;6136329;23;20439;-91
2022/04/08 03:59:49;;;;;;;4.68;1.40;;;;;;;;;;6135663;23;19983;-90
2022/04/08 04:02:15;;;;;;;2.45;1.30;;;;;;;;;;6135541;23;20021;-90
2022/04/08 04:04:41;;;;;;;3.55;1.77;;;;;;;;;;6135858;23;20049;-90
2022/04/08 04:07:08;;;;;;;4.18;1.50;;;;;;;;;;6135304;23;20017;-93
2022/04/08 04:09:34;;;;;;;5.65;1.98;;;;;;;;;;6160571;23;20013;-90
2022/04/08 04:12:00;;;;;;;6.25;2.05;;;;;;;;;;6135347;23;20021;-90
2022/04/08 04:14:26;;;;;;;4.72;1.38;;;;;;;;;;6135987;23;20346;-89
2022/04/08 04:16:52;;;;;;;5.05;1.10;;;;;;;;;;6135968;23;20065;-90
2022/04/08 04:19:18;;;;;;;6.00;1.50;;;;;;;;;;6134991;23;20021;-89
2022/04/08 04:21:45;;;;;;;2.30;1.40;;;;;;;;;;6135297;23;20017;-89
2022/04/08 04:24:11;;;;;;;2.67;2.00;;;;;;;;;;6135381;23;20115;-89
2022/04/08 04:26:37;;;;;;;2.88;0.82;;;;;;;;;;6134794;23;20095;-90
2022/04/08 04:29:03;;;;;;;6.53;1.17;;;;;;;;;;6160199;23;20021;-90
2022/04/08 04:31:29;;;;;;;5.30;1.67;;;;;;;;;;6135464;23;20473;-90
2022/04/08 04:33:55;;;;;;;1.00;0.90;;;;;;;;;;6135128;23;20080;-90
2022/04/08 04:36:21;;;;;;;3.17;1.70;;;;;;;;;;6134631;23;20454;-89
2022/04/08 04:38:47;;;;;;;2.67;1.92;;;;;;;;;;6135350;23;20019;-89
2022/04/08 04:41:13;;;;;;;4.38;1.67;;;;;;;;;;6159681;23;20021;-90
2022/04/08 04:43:39;;;;;;;4.95;1.80;;;;;;;;;;6134674;23;20013;-89
2022/04/08 04:46:05;;;;;;;6.47;1.83;;;;;;;;;;6135224;23;20517;-89
2022/04/08 04:48:31;;;;;;;4.57;1.27;;;;;;;;;;6135236;23;20016;-89
2022/04/08 04:50:58;;;;;;;5.00;1.10;;;;;;;;;;6134968;23;20024;-90
2022/04/08 04:53:24;;;;;;;2.38;1.25;;;;;;;;;;6134479;23;20111;-89
2022/04/08 04:55:50;;;;;;;2.53;1.23;;;;;;;;;;6134766;23;20100;-89
2022/04/08 04:58:16;;;;;;;4.80;1.20;;;;;;;;;;6134705;23;20347;-89
2022/04/08 05:00:42;;;;;;;1.80;1.48;;;;;;;;;;6159384;23;20048;-90
2022/04/08 05:03:09;;;;;;;5.15;1.13;;;;;;;;;;6159599;23;20025;-90
2022/04/08 05:05:38;;;;;;;3.47;1.90;;;;;;;;;;6134673;23;20041;-89
2022/04/08 05:08:05;;;;;;;6.85;1.40;;;;;;;;;;6135289;23;20017;-89
2022/04/08 05:10:31;;;;;;;7.68;1.58;;;;;;;;;;6158892;23;20028;-90
2022/04/08 05:13:01;;;;;;;5.60;1.55;;;;;;;;;;6133153;23;20028;-90
2022/04/08 05:15:28;;;;;;;2.60;1.42;;;;;;;;;;6159501;23;20100;-89
2022/04/08 05:17:54;;;;;;;2.47;1.05;;;;;;;;;;6134694;23;20021;-90
2022/04/08 05:20:22;;;;;;;7.05;2.10;;;;;;;;;;6135171;23;20469;-90
2022/04/08 05:22:48;;;;;;;2.60;1.30;;;;;;;;;;6135419;23;20021;-90
2022/04/08 05:25:14;;;;;;;1.60;1.25;;;;;;;;;;6135049;23;20020;-89
2022/04/08 05:27:44;;;;;;;6.53;1.48;;;;;;;;;;6128588;23;20025;-90
2022/04/08 05:30:16;;;;;;;1.98;1.30;;;;;;;;;;6184798;23;20021;-89
2022/04/08 05:32:42;;;;;;;4.68;1.60;;;;;;;;;;6133704;23;20443;-90
2022/04/08 05:35:09;;;;;;;6.13;2.13;;;;;;;;;;6134312;23;20350;-89
2022/04/08 05:37:39;;;;;;;4.47;1.85;;;;;;;;;;6134936;23;20024;-90
2022/04/08 05:40:06;;;;;;;4.00;1.38;;;;;;;;;;6159804;23;20017;-90
2022/04/08 05:42:32;;;;;;;3.97;1.60;;;;;;;;;;6136140;23;20021;-90
2022/04/08 05:44:58;;;;;;;6.80;1.40;;;;;;;;;;6159939;23;20560;-89
2022/04/08 05:47:28;;;;;;;3.20;1.60;;;;;;;;;;6135885;23;20099;-89
2022/04/08 05:49:54;;;;;;;6.65;1.80;;;;;;;;;;6135705;23;20064;-89
2022/04/08 05:52:20;;;;;;;7.85;2.08;;;;;;;;;;6160342;23;20048;-90
2022/04/08 05:54:49;;;;;;;2.00;1.52;;;;;;;;;;6135838;23;20031;-89
2022/04/08 05:57:19;;;;;;;7.20;2.10;;;;;;;;;;6160466;23;20028;-90
2022/04/08 05:59:45;;;;;;;3.08;1.40;;;;;;;;;;6135951;23;20445;-90
2022/04/08 06:02:11;;;;;;;10.18;2.00;;;;;;;;;;6135964;23;20021;-89
2022/04/08 06:04:37;;;;;;;6.22;1.70;;;;;;;;;;6136616;23;20338;-89
2022/04/08 06:07:07;;;;;;;3.67;1.70;;;;;;;;;;6136490;23;20096;-89
2022/04/08 06:09:34;;;;;;;4.00;1.60;;;;;;;;;;6137797;23;20024;-90
2022/04/08 06:12:01;;;;;;;6.82;1.95;;;;;;;;;;6161452;23;20017;-89
2022/04/08 06:14:27;;;;;;;9.13;1.98;;;;;;;;;;6135550;23;20017;-91
2022/04/08 06:16:54;;;;;;;3.88;1.67;;;;;;;;;;6161021;23;20024;-90
2022/04/08 06:19:20;;;;;;;5.97;1.95;;;;;;;;;;6135192;23;20017;-90
2022/04/08 06:21:46;;;;;;;11.00;2.17;;;;;;;;;;6135598;23;20391;-89
2022/04/08 06:24:15;;;;;;;5.72;2.30;;;;;;;;;;6136648;23;20027;-90
2022/04/08 06:26:41;;;;;;;7.50;1.98;;;;;;;;;;6161443;23;20020;-89
2022/04/08 06:29:08;;;;;;;7.53;1.92;;;;;;;;;;6161816;23;20017;-89
2022/04/08 06:31:35;;;;;;;8.13;2.38;;;;;;;;;;6187839;23;20028;-89
2022/04/08 06:34:01;;;;;;;8.15;2.65;;;;;;;;;;6137180;23;20017;-89
2022/04/08 06:36:28;;;;;;;7.95;2.40;;;;;;;;;;6137036;23;20021;-90
2022/04/08 06:38:55;;;;;;;4.75;2.38;;;;;;;;;;6136763;23;20096;-90
2022/04/08 06:41:21;;;;;;;5.85;1.80;;;;;;;;;;6137163;23;20470;-89
2022/04/08 06:43:47;;;;;;;9.38;2.20;;;;;;;;;;6136272;23;20020;-90
2022/04/08 06:46:13;;;;;;;4.88;1.83;;;;;;;;;;6136340;23;20052;-90
2022/04/08 06:48:39;;;;;;;7.47;2.85;;;;;;;;;;6162224;23;20021;-90
2022/04/08 06:51:05;;;;;;;4.80;1.88;;;;;;;;;;6137394;23;20108;-89
2022/04/08 06:53:32;;;;;;;5.63;1.60;;;;;;;;;;6136910;23;20017;-89
2022/04/08 06:55:59;;;;;;;13.15;2.40;;;;;;;;;;6136374;23;20029;-91
2022/04/08 06:58:26;;;;;;;9.23;2.58;;;;;;;;;;6135862;23;20053;-90
2022/04/08 07:00:55;;;;;;;4.60;2.33;;;;;;;;;;6136937;23;20017;-90
2022/04/08 07:03:21;;;;;;;5.45;2.22;;;;;;;;;;6160037;23;20109;-90
2022/04/08 07:05:48;;;;;;;12.18;1.77;;;;;;;;;;6160181;23;20017;-91
2022/04/08 07:08:14;;;;;;;5.72;2.03;;;;;;;;;;6136302;23;20021;-90
2022/04/08 07:10:40;;;;;;;4.88;2.40;;;;;;;;;;6161070;23;20414;-90
2022/04/08 07:13:09;;;;;;;15.13;3.03;;;;;;;;;;6160193;23;20092;-91
2022/04/08 07:15:35;;;;;;;9.25;2.58;;;;;;;;;;6134811;23;20355;-90
2022/04/08 07:18:05;;;;;;;6.65;2.63;;;;;;;;;;6136475;23;20017;-91
2022/04/08 07:20:31;;;;;;;3.78;2.03;;;;;;;;;;6136056;23;20041;-89
2022/04/08 07:23:01;;;;;;;7.97;2.33;;;;;;;;;;6135386;23;20096;-90
2022/04/08 07:25:28;;;;;;;8.05;2.55;;;;;;;;;;6160819;23;20013;-89
2022/04/08 07:27:59;;;;;;;6.55;2.55;;;;;;;;;;6134687;23;20017;-89
2022/04/08 07:30:28;;;;;;;;;;;;;;;;;;6137033;23;20394;-91
2022/04/08 07:32:54;;;;;;;5.95;1.80;;;;;;;;;;6135702;23;20385;-89
2022/04/08 07:35:21;;;;;;;5.07;2.13;;;;;;;;;;6135855;23;20017;-91
2022/04/08 07:37:48;;;;;;;4.93;1.70;;;;;;;;;;6135658;23;20066;-89
2022/04/08 07:40:14;;;;;;;3.30;1.88;;;;;;;;;;6135480;23;20096;-90
2022/04/08 07:42:40;;;;;;;3.42;1.73;;;;;;;;;;6135914;23;20072;-89
2022/04/08 07:45:07;;;;;;;3.42;2.15;;;;;;;;;;6137120;23;20013;-93
2022/04/08 07:47:34;;;;;;;9.23;2.42;;;;;;;;;;6138023;23;20075;-94
2022/04/08 07:50:00;;;;;;;6.78;2.40;;;;;;;;;;6136816;23;20017;-93
2022/04/08 07:52:27;;;;;;;5.63;1.95;;;;;;;;;;6136267;23;20021;-94
2022/04/08 07:54:56;;;;;;;4.95;1.63;;;;;;;;;;6138056;23;20096;-93
2022/04/08 07:57:23;;;;;;;5.68;1.98;;;;;;;;;;6137718;23;20017;-96
2022/04/08 07:59:49;;;;;;;5.85;2.35;;;;;;;;;;6138939;23;20021;-95
2022/04/08 08:02:15;;;;;;;4.70;1.85;;;;;;;;;;6139907;23;20028;-93
2022/04/08 08:05:11;;;;;;;7.78;1.65;;;;;;;;;;6139673;23;20054;-95
2022/04/08 08:08:20;;;;;;;8.57;1.58;;;;;;;;;;6086428;23;20021;-96
2022/04/08 08:10:54;;;;;;;9.50;1.63;;;;;;;;;;6108602;23;20022;-96
2022/04/08 08:19:53;;;;;;;;;;;;;;;;;;;;;
2022/04/08 08:26:07;;;;;;;5.40;1.65;;;;;;;;;;6075128;23;20046;-95
2022/04/08 08:28:49;;;;;;;4.10;1.58;;;;;;;;;;6016129;23;20026;-94
2022/04/08 08:31:36;;;;;;;;;;;;;;;;;;;;;
2022/04/08 08:37:19;;;;;;;2.53;1.55;;;;;;;;;;5994488;23;20008;-94
2022/04/08 08:43:35;;;;;;;;;;;7.20;99.90;;;;;;6063685;23;20025;-95
2022/04/08 08:46:30;;;;;;;7.88;1.95;;;;;;;;;;6165790;23;19924;-95
2022/04/08 09:09:44;;;;;;;;;;;;;;;;;;;;;
2022/04/08 09:12:29;;;;;;;4.75;1.20;;;;;;;;;;5954573;23;20024;-92
2022/04/08 09:16:01;;;;;;;;;;;;;;;;;;;;;
2022/04/08 09:19:04;;;;;;;1.75;1.10;;;;;;;;;;6043165;23;20014;-91
2022/04/08 09:29:55;;;;;;;3.75;1.67;;;;;;;;;;5903136;24;20499;-92
2022/04/08 09:32:27;;;;;;;1.60;1.50;;;;;;;;;;5829800;24;20025;-89
2022/04/08 09:34:53;;;;;;;2.33;1.20;;;;;;;;;;5854632;24;20090;-90
2022/04/08 09:37:20;;;;;;;2.55;1.73;;;;;;;;;;5857001;24;20060;-90
2022/04/08 09:40:08;;;;;;;1.45;1.35;;;;;;;;;;5951202;23;20100;-91
2022/04/08 09:42:55;;;;;;;3.83;1.63;;;;;;;;;;6134177;23;20466;-90
2022/04/08 09:45:30;;;;;;;11.30;2.00;;;;;;;;;;6141498;23;20017;-91
2022/04/08 09:48:26;;;;;;;8.32;2.92;;;;;;;;;;6139305;23;20028;-90
2022/04/08 09:50:55;;;;;;;1.48;0.80;;;;;;;;;;6135833;23;20422;-92
2022/04/08 09:53:22;;;;;;;2.47;0.90;;;;;;;;;;6137991;23;20092;-90
2022/04/08 09:58:43;;;;;;;0.93;0.65;;;;;;;;;;6162738;23;20096;-89
2022/04/08 10:01:20;;;;;;;1.52;0.88;;;;;;;;;;6139769;23;20013;-89
2022/04/08 10:03:52;;;;;;;4.75;1.40;;;;;;;;;;6139754;23;20017;-88
2022/04/08 10:06:18;;;;;;;1.48;1.10;;;;;;;;;;6139678;23;20450;-90
2022/04/08 10:08:51;;;;;;;3.13;1.48;;;;;;;;;;6139630;23;20028;-89
2022/04/08 10:11:49;;;;;;;7.57;1.30;;;;;;;;;;6139104;23;20028;-88
2022/04/08 10:14:27;;;;;;;3.28;1.80;;;;;;;;;;6135674;23;20101;-90
2022/04/08 10:17:06;;;;;;;3.42;1.65;;;;;;;;;;6141058;23;20079;-89
2022/04/08 10:19:36;;;;;;;1.42;1.25;;;;;;;;;;6140757;23;20021;-89
2022/04/08 10:22:22;;;;;;;2.03;1.27;;;;;;;;;;6141251;23;20081;-92
2022/04/08 10:24:55;;;;;;;1.27;1.00;;;;;;;;;;6165083;23;20019;-91
2022/04/08 10:27:39;;;;;;;2.03;1.42;;;;;;;;;;6142466;23;20028;-90
2022/04/08 10:30:18;;;;;;;3.53;1.30;;;;;;;;;;6143764;23;20041;-91
2022/04/08 10:33:01;;;;;;;5.38;1.33;;;;;;;;;;6192157;23;20076;-90
2022/04/08 10:35:30;;;;;;;2.50;1.20;;;;;;;;;;6137546;23;20025;-88
2022/04/08 10:38:03;;;;;;;1.73;1.00;;;;;;;;;;6188721;23;20017;-87
2022/04/08 10:40:40;;;;;;;3.08;1.55;;;;;;;;;;6137205;23;20323;-89
2022/04/08 10:43:08;;;;;;;5.57;2.33;;;;;;;;;;6137347;23;20049;-87
2022/04/08 10:45:35;;;;;;;9.38;2.30;;;;;;;;;;6137749;23;20029;-90
2022/04/08 10:48:10;;;;;;;5.35;1.83;;;;;;;;;;6138129;23;20017;-88
2022/04/08 10:50:37;;;;;;;3.47;1.83;;;;;;;;;;6188940;23;20017;-89
2022/04/08 10:53:07;;;;;;;4.80;1.98;;;;;;;;;;6137208;23;20355;-87
2022/04/08 10:55:44;;;;;;;7.43;1.77;;;;;;;;;;6160764;23;20048;-87
2022/04/08 10:58:11;;;;;;;3.00;1.50;;;;;;;;;;6136149;23;20017;-87
2022/04/08 11:00:40;;;;;;;2.80;1.23;;;;;;;;;;6129545;23;20025;-85
2022/04/08 11:03:10;;;;;;;13.98;2.65;;;;;;;;;;6134880;23;20056;-87
2022/04/08 11:05:39;;;;;;;5.90;1.52;;;;;;;;;;6135886;23;20020;-87
2022/04/08 11:08:07;;;;;;;8.55;1.85;;;;;;;;;;6135965;23;20063;-87
2022/04/08 11:10:33;;;;;;;10.77;4.07;;;;;;;;;;6136251;23;20067;-87
2022/04/08 11:13:02;;;;;;;1.92;1.35;;;;;;;;;;6136646;23;20021;-89
2022/04/08 11:15:29;;;;;;;4.65;1.60;;;;;;;;;;6160508;23;20032;-87
2022/04/08 11:17:56;;;;;;;11.73;1.58;;;;;;;;;;6158246;23;20382;-87
2022/04/08 11:20:22;;;;;;;4.57;1.98;;;;;;;;;;6135424;23;20533;-87
2022/04/08 11:22:52;;;;;;;2.97;1.60;;;;;;;;;;6134631;23;20510;-89
2022/04/08 11:25:20;;;;;;;9.32;1.80;;;;;;;;;;6158942;23;20021;-87
2022/04/08 11:27:51;;;;;;;3.88;1.95;;;;;;;;;;6135588;23;20354;-90
2022/04/08 11:30:19;;;;;;;6.75;1.80;;;;;;;;;;6161345;23;20438;-87
2022/04/08 11:32:45;;;;;;;2.95;1.73;;;;;;;;;;6160372;23;20037;-88
2022/04/08 11:35:14;;;;;;;4.72;1.60;;;;;;;;;;6157930;23;20095;-88
2022/04/08 11:37:40;;;;;;;4.53;1.38;;;;;;;;;;6135795;23;20069;-90
2022/04/08 11:40:07;;;;;;;3.85;1.60;;;;;;;;;;6134444;23;20021;-89
2022/04/08 11:42:34;;;;;;;4.07;1.35;;;;;;;;;;6135948;23;20021;-90
2022/04/08 11:45:00;;;;;;;4.13;1.77;;;;;;;;;;6158161;23;20013;-88
2022/04/08 11:47:31;;;;;;;4.43;1.30;;;;;;;;;;6135955;23;20017;-89
2022/04/08 11:50:07;;;;;;;2.30;1.33;;;;;;;;;;6135108;23;20017;-90
2022/04/08 11:52:33;;;;;;;5.22;2.00;;;;;;;;;;6133833;23;20017;-89
2022/04/08 11:55:04;;;;;;;4.03;1.67;;;;;;;;;;6135004;23;20075;-89
2022/04/08 11:57:31;;;;;;;1.40;1.33;;;;;;;;;;6134120;23;20009;-88
2022/04/08 11:59:57;;;;;;;4.07;1.50;;;;;;;;;;6135907;23;20017;-89
2022/04/08 12:02:24;;;;;;;2.17;1.52;;;;;;;;;;6134353;23;20469;-88
2022/04/08 12:04:50;;;;;;;7.15;1.50;;;;;;;;;;6135130;23;20059;-89
2022/04/08 12:07:23;;;;;;;5.00;1.30;;;;;;;;;;6160499;23;20017;-90
2022/04/08 12:09:50;;;;;;;6.80;1.45;;;;;;;;;;6135179;23;20025;-89
2022/04/08 12:12:22;;;;;;;4.90;1.60;;;;;;;;;;6135350;23;20021;-89
2022/04/08 12:14:48;;;;;;;5.55;1.88;;;;;;;;;;6135701;23;20017;-89
2022/04/08 12:17:14;;;;;;;1.95;1.13;;;;;;;;;;6160974;23;20466;-88
2022/04/08 12:19:41;;;;;;;2.70;1.20;;;;;;;;;;6159100;23;20342;-89
2022/04/08 12:22:14;;;;;;;3.03;1.38;;;;;;;;;;6135493;23;20403;-88
2022/04/08 12:24:41;;;;;;;1.05;0.85;;;;;;;;;;6135263;23;20021;-88
2022/04/08 12:27:11;;;;;;;4.40;1.88;;;;;;;;;;6135341;23;20036;-87
2022/04/08 12:29:39;;;;;;;3.58;1.00;;;;;;;;;;6134554;23;20024;-90
2022/04/08 12:32:15;;;;;;;7.55;1.83;;;;;;;;;;6136476;23;20024;-90
2022/04/08 12:34:50;;;;;;;2.28;1.80;;;;;;;;;;6135877;23;20465;-90
2022/04/08 12:37:19;;;;;;;4.75;1.67;;;;;;;;;;6136313;23;20024;-91
2022/04/08 12:39:53;;;;;;;6.75;1.30;;;;;;;;;;6133506;23;20021;-89
2022/04/08 12:42:22;;;;;;;6.63;1.42;;;;;;;;;;6135969;23;20087;-88
2022/04/08 12:44:48;;;;;;;4.57;1.77;;;;;;;;;;6135969;23;20028;-89
2022/04/08 12:47:18;;;;;;;6.43;1.52;;;;;;;;;;6136385;23;20462;-90
2022/04/08 12:50:14;;;;;;;;;;;;;;;;;;;;;
2022/04/08 12:53:34;;;;;;;6.47;1.63;;;;;;;;;;6070682;23;20034;-94
2022/04/08 12:56:06;;;;;;;7.38;2.05;;;;;;;;;;6022235;23;20019;-93
2022/04/08 12:59:07;;;;;;;3.08;1.27;;;;;;;;;;6043864;23;20326;-92
2022/04/08 13:12:07;;;;;;;2.60;1.20;;;;;;;;;;5766006;24;20054;-94
2022/04/08 13:14:32;;;;;;;;;;;9.40;99.90;;;;;;5718669;25;20083;-90
2022/04/08 13:17:04;;;;;;;1.58;1.40;;;;;;;;;;5718836;25;20353;-91
2022/04/08 13:22:30;;;;;;;5.25;1.42;;;;;;;;;;5743407;24;20016;-91
2022/04/08 13:24:57;;;;;;;7.00;1.63;;;;;;;;;;5763116;24;20012;-86
2022/04/08 13:27:29;;;;;;;6.85;1.30;;;;;;;;;;5758016;24;20019;-91
2022/04/08 13:30:05;;;;;;;;;;;;;;;;;;;;;
2022/04/08 13:32:42;;;;;;;2.67;1.33;;;;;;;;;;5769417;24;20067;-90
2022/04/08 13:35:22;;;;;;;;;;;9.30;99.90;;;;;;5769156;24;20076;-89
2022/04/08 13:38:23;;;;;;;3.50;1.63;;;;;;;;;;5769956;24;19909;-91
2022/04/08 13:40:50;;;;;;;5.00;1.33;;;;;;;;;;5821455;24;20037;-88
2022/04/08 13:43:19;;;;;;;4.00;1.08;;;;;;;;;;5821599;24;20018;-91
2022/04/08 13:45:45;;;;;;;4.35;1.50;;;;;;;;;;5889083;24;20025;-88
2022/04/08 13:48:14;;;;;;;4.55;1.25;;;;;;;;;;5955811;24;20035;-89
2022/04/08 13:50:40;;;;;;;2.10;1.63;;;;;;;;;;5948962;23;20034;-90
2022/04/08 13:53:06;;;;;;;2.95;1.10;;;;;;;;;;6042010;23;20015;-88
2022/04/08 13:55:33;;;;;;;4.50;1.30;;;;;;;;;;6041526;23;20211;-88
2022/04/08 13:57:59;;;;;;;12.98;2.25;;;;;;;;;;6040544;23;20018;-87
2022/04/08 14:00:26;;;;;;;7.65;2.55;;;;;;;;;;6159394;23;20345;-87
2022/04/08 14:02:52;;;;;;;4.35;1.58;;;;;;;;;;6134499;23;20021;-88
2022/04/08 14:05:23;;;;;;;5.57;1.48;;;;;;;;;;6135490;23;20013;-87
2022/04/08 14:07:49;;;;;;;4.78;1.38;;;;;;;;;;6132880;23;20338;-88
2022/04/08 14:10:16;;;;;;;4.50;1.58;;;;;;;;;;6133403;23;20025;-88
2022/04/08 14:12:42;;;;;;;5.32;1.17;;;;;;;;;;6185132;23;20017;-88
2022/04/08 14:15:09;;;;;;;2.45;1.42;;;;;;;;;;6134640;23;20049;-88
2022/04/08 14:17:35;;;;;;;7.25;3.70;;;;;;;;;;6133298;23;20021;-88
2022/04/08 14:20:01;;;;;;;2.55;1.33;;;;;;;;;;6134958;23;20028;-88
2022/04/08 14:22:28;;;;;;;5.53;1.77;;;;;;;;;;6159120;23;20459;-89
2022/04/08 14:24:54;;;;;;;2.97;1.40;;;;;;;;;;6159585;23;20027;-88
2022/04/08 14:27:20;;;;;;;11.27;1.60;;;;;;;;;;6134778;23;20021;-88
2022/04/08 14:29:46;;;;;;;5.75;1.65;;;;;;;;;;6135841;23;20257;-90
2022/04/08 14:32:12;;;;;;;6.68;1.50;;;;;;;;;;6161069;23;20022;-89
2022/04/08 14:34:38;;;;;;;5.75;2.33;;;;;;;;;;6135967;23;20311;-88
2022/04/08 14:37:05;;;;;;;4.13;1.15;;;;;;;;;;6136678;23;20144;-88
2022/04/08 14:39:31;;;;;;;5.82;1.52;;;;;;;;;;6161617;23;20017;-89
2022/04/08 14:41:57;;;;;;;9.48;2.58;;;;;;;;;;6160435;23;20512;-88
2022/04/08 14:44:24;;;;;;;5.10;1.60;;;;;;;;;;6161745;23;20013;-88
2022/04/08 14:46:50;;;;;;;4.28;1.30;;;;;;;;;;6135706;23;20105;-88
2022/04/08 14:49:17;;;;;;;6.75;2.00;;;;;;;;;;6161378;23;20017;-87
2022/04/08 14:51:43;;;;;;;3.70;1.48;;;;;;;;;;6159701;23;20083;-88
2022/04/08 14:54:11;;;;;;;9.18;2.83;;;;;;;;;;6136776;23;20013;-88
2022/04/08 14:56:39;;;;;;;3.83;1.45;;;;;;;;;;6186986;23;20028;-88
2022/04/08 14:59:05;;;;;;;6.07;1.50;;;;;;;;;;6136405;23;20044;-88
2022/04/08 15:01:31;;;;;;;8.85;1.70;;;;;;;;;;6161528;23;20021;-88
2022/04/08 15:03:57;;;;;;;7.30;1.50;;;;;;;;;;6136424;23;20024;-89
2022/04/08 15:06:23;;;;;;;4.38;1.42;;;;;;;;;;6136443;23;20024;-89
2022/04/08 15:08:50;;;;;;;7.72;1.95;;;;;;;;;;6162140;23;20017;-89
2022/04/08 15:11:16;;;;;;;3.35;1.50;;;;;;;;;;6136122;23;20095;-88
2022/04/08 15:13:42;;;;;;;3.95;1.70;;;;;;;;;;6133925;23;20036;-89
2022/04/08 15:16:08;;;;;;;8.98;1.95;;;;;;;;;;6160119;23;20021;-88
2022/04/08 15:18:34;;;;;;;4.43;1.40;;;;;;;;;;6137588;23;20446;-88
2022/04/08 15:21:00;;;;;;;9.55;3.33;;;;;;;;;;6137800;23;20028;-88
2022/04/08 15:23:26;;;;;;;7.88;1.70;;;;;;;;;;6161684;23;20454;-87
2022/04/08 15:25:52;;;;;;;3.67;1.33;;;;;;;;;;6161552;23;20013;-88
2022/04/08 15:28:18;;;;;;;6.50;1.70;;;;;;;;;;6136769;23;20509;-89
2022/04/08 15:30:44;;;;;;;9.25;2.45;;;;;;;;;;6136805;23;20017;-88
2022/04/08 15:33:12;;;;;;;7.05;1.80;;;;;;;;;;6157370;23;20017;-88
2022/04/08 15:35:38;;;;;;;3.78;1.70;;;;;;;;;;6161703;23;20354;-88
2022/04/08 15:38:04;;;;;;;4.40;1.20;;;;;;;;;;6136696;23;20346;-88
2022/04/08 15:40:31;;;;;;;10.30;3.05;;;;;;;;;;6135020;23;20020;-89
2022/04/08 15:43:00;;;;;;;3.72;1.42;;;;;;;;;;6135807;23;20057;-92
2022/04/08 15:45:26;;;;;;;2.45;1.52;;;;;;;;;;6186670;23;20298;-88
2022/04/08 15:47:55;;;;;;;6.72;1.60;;;;;;;;;;6185939;23;20044;-89
2022/04/08 15:50:21;;;;;;;6.78;2.25;;;;;;;;;;6184702;23;20056;-90
2022/04/08 15:52:48;;;;;;;5.38;1.63;;;;;;;;;;6185489;23;20025;-88
2022/04/08 15:55:14;;;;;;;6.63;1.90;;;;;;;;;;6135707;23;20537;-89
2022/04/08 15:57:40;;;;;;;11.05;2.10;;;;;;;;;;6136136;23;20021;-88
2022/04/08 16:00:07;;;;;;;6.93;1.80;;;;;;;;;;6136957;23;20013;-90
2022/04/08 16:02:34;;;;;;;4.25;1.80;;;;;;;;;;6186936;23;20443;-92